Time;durP1;ratioP1;P1;durP2;ratioP2;P2;SDS_P1;SDS_P2;PMS_P1;PMS_P2;Temp;Humidity;BMP_temperature;BMP_pressure;BME280_temperature;BME280_humidity;BME280_pressure;Samples;Min_cycle;Max_cycle;Signal;HPM_P1;HPM_P2
2024/03/17 06:34:58;;;;;;;3.93;2.00;;;9.40;99.90;;;;;;5003396;23;20643;-71
2024/03/17 06:37:25;;;;;;;3.93;2.20;;;9.40;99.90;;;;;;4920789;23;20265;-73
2024/03/17 06:39:52;;;;;;;4.73;2.07;;;9.60;99.90;;;;;;4915232;29;20293;-71
2024/03/17 06:42:19;;;;;;;4.83;2.00;;;9.70;99.90;;;;;;4917944;29;20808;-71
2024/03/17 06:44:46;;;;;;;3.73;1.70;;;9.80;99.90;;;;;;4919385;29;20224;-72
2024/03/17 06:47:13;;;;;;;2.80;1.60;;;9.80;99.90;;;;;;4919157;29;20217;-72
2024/03/17 06:49:40;;;;;;;3.10;1.87;;;9.80;99.90;;;;;;4919446;29;20215;-72
2024/03/17 06:52:08;;;;;;;3.77;1.70;;;9.80;99.90;;;;;;4919210;29;20214;-71
2024/03/17 06:54:35;;;;;;;3.67;1.97;;;9.80;99.90;;;;;;4919183;29;20754;-72
2024/03/17 06:57:02;;;;;;;3.00;1.80;;;10.00;99.90;;;;;;4919453;29;20217;-68
2024/03/17 06:59:29;;;;;;;5.13;2.00;;;10.10;99.90;;;;;;4918387;29;20237;-69
2024/03/17 07:01:56;;;;;;;3.47;1.60;;;10.20;99.90;;;;;;4919729;29;20296;-69
2024/03/17 07:04:22;;;;;;;4.03;2.20;;;10.20;99.90;;;;;;4919363;29;20316;-68
2024/03/17 07:06:50;;;;;;;4.77;1.40;;;10.30;99.90;;;;;;4918806;29;20216;-69
2024/03/17 07:09:18;;;;;;;5.03;1.60;;;10.30;99.90;;;;;;4918696;29;20213;-68
2024/03/17 07:11:45;;;;;;;2.77;1.63;;;10.30;99.90;;;;;;4918691;29;20691;-69
2024/03/17 07:14:12;;;;;;;6.33;1.87;;;10.50;99.90;;;;;;4917855;29;20332;-69
2024/03/17 07:16:39;;;;;;;2.47;1.40;;;10.80;99.90;;;;;;4919254;29;20220;-69
2024/03/17 07:19:05;;;;;;;2.63;1.50;;;11.20;99.90;;;;;;4919031;29;20214;-68
2024/03/17 07:21:32;;;;;;;2.87;1.30;;;11.40;99.90;;;;;;4918431;29;20249;-70
2024/03/17 07:24:04;;;;;;;2.57;1.70;;;11.50;99.90;;;;;;4918436;29;20768;-73
2024/03/17 07:26:32;;;;;;;4.03;1.70;;;11.70;99.90;;;;;;4918814;29;20265;-73
2024/03/17 07:28:59;;;;;;;3.37;1.40;;;11.60;99.90;;;;;;4918782;29;20228;-71
2024/03/17 07:31:26;;;;;;;2.77;1.30;;;11.60;99.90;;;;;;4917963;29;20241;-71
2024/03/17 07:33:53;;;;;;;1.77;1.30;;;11.40;99.90;;;;;;4918186;29;20658;-71
2024/03/17 07:36:21;;;;;;;3.40;1.07;;;11.30;99.90;;;;;;4918353;29;20470;-72
2024/03/17 07:38:48;;;;;;;2.37;1.40;;;11.10;99.90;;;;;;4918401;29;20245;-71
2024/03/17 07:41:15;;;;;;;2.43;1.50;;;11.10;99.90;;;;;;4918612;29;20237;-72
2024/03/17 07:43:43;;;;;;;2.40;1.33;;;11.20;99.90;;;;;;4918126;29;20332;-72
2024/03/17 07:46:12;;;;;;;2.80;1.53;;;11.30;99.90;;;;;;4918621;29;20260;-71
2024/03/17 07:48:40;;;;;;;1.87;1.23;;;11.30;99.90;;;;;;4918671;29;20213;-72
2024/03/17 07:51:08;;;;;;;2.23;1.23;;;11.20;99.90;;;;;;4918070;29;20296;-72
2024/03/17 07:53:36;;;;;;;4.10;1.37;;;11.10;99.90;;;;;;4917447;29;20316;-72
2024/03/17 07:56:05;;;;;;;2.67;1.20;;;11.00;99.90;;;;;;4917948;29;20249;-72
2024/03/17 07:58:33;;;;;;;3.43;1.23;;;11.10;99.90;;;;;;4913703;29;20241;-73
2024/03/17 08:01:02;;;;;;;2.53;1.13;;;11.20;99.90;;;;;;4915378;29;20237;-72
2024/03/17 08:03:31;;;;;;;2.33;1.20;;;11.40;99.90;;;;;;4917706;29;20242;-71
2024/03/17 08:05:58;;;;;;;2.43;1.07;;;11.60;99.90;;;;;;4928802;29;20293;-72
2024/03/17 08:08:25;;;;;;;2.90;1.40;;;11.90;99.90;;;;;;4917538;29;20255;-72
2024/03/17 08:10:52;;;;;;;2.70;1.43;;;12.10;99.90;;;;;;4934253;29;20244;-73
2024/03/17 08:13:20;;;;;;;4.37;1.33;;;12.40;99.90;;;;;;4917766;29;20261;-72
2024/03/17 08:15:48;;;;;;;1.33;0.87;;;12.60;99.90;;;;;;4925917;29;20201;-71
2024/03/17 19:11:23;;;;;;;2.67;1.30;;;12.50;99.90;;;;;;4174227;23;20589;-73
2024/03/17 19:13:50;;;;;;;2.00;1.03;;;12.50;99.90;;;;;;4919277;29;20744;-73
2024/03/17 19:16:17;;;;;;;3.20;1.33;;;12.60;99.90;;;;;;4905341;29;20556;-82
2024/03/17 19:18:44;;;;;;;3.07;1.10;;;12.60;99.90;;;;;;4914216;29;20225;-73
2024/03/17 19:21:12;;;;;;;1.60;1.33;;;12.50;99.90;;;;;;4919017;29;20269;-72
2024/03/17 19:23:41;;;;;;;2.27;1.70;;;12.50;99.90;;;;;;4918940;29;20276;-73
2024/03/17 19:26:11;;;;;;;4.63;1.40;;;12.50;99.90;;;;;;4918765;29;20232;-73
2024/03/17 19:28:40;;;;;;;1.83;1.27;;;12.60;99.90;;;;;;4918734;29;20229;-74
2024/03/17 19:31:08;;;;;;;4.53;1.50;;;12.60;99.90;;;;;;4918573;29;20242;-76
2024/03/17 19:33:36;;;;;;;2.37;1.40;;;12.60;99.90;;;;;;4918365;29;20201;-73
2024/03/17 19:36:05;;;;;;;3.53;1.90;;;12.60;99.90;;;;;;4918518;29;20248;-74
2024/03/17 19:38:32;;;;;;;1.37;1.27;;;12.60;99.90;;;;;;4908994;29;20230;-74
2024/03/17 19:41:01;;;;;;;2.20;1.53;;;12.60;99.90;;;;;;4912612;29;20241;-73
2024/03/17 19:43:30;;;;;;;3.37;1.60;;;12.60;99.90;;;;;;4918516;29;20244;-72
2024/03/17 19:46:09;;;;;;;5.57;1.63;;;12.50;99.90;;;;;;4918193;29;20298;-72
2024/03/17 19:48:36;;;;;;;3.60;1.30;;;12.50;99.90;;;;;;4917366;29;20264;-73
2024/03/17 19:51:07;;;;;;;2.37;1.50;;;12.60;99.90;;;;;;4918293;29;20252;-73
2024/03/17 19:53:34;;;;;;;2.53;1.40;;;12.60;99.90;;;;;;4918512;29;20213;-72
2024/03/17 19:56:01;;;;;;;2.70;1.00;;;12.60;99.90;;;;;;4918412;29;20561;-72
2024/03/17 19:58:28;;;;;;;3.00;1.27;;;12.50;99.90;;;;;;4917975;29;20651;-73
2024/03/17 20:00:55;;;;;;;2.23;1.40;;;12.50;99.90;;;;;;4918969;29;20205;-73
2024/03/17 20:03:24;;;;;;;3.20;1.10;;;12.50;99.90;;;;;;4918289;29;20222;-80
2024/03/17 20:05:51;;;;;;;1.80;1.20;;;12.60;99.90;;;;;;4918149;29;20256;-72
2024/03/17 20:08:20;;;;;;;2.43;1.40;;;12.60;99.90;;;;;;4917887;29;20229;-73
2024/03/17 20:10:48;;;;;;;2.60;1.10;;;12.50;99.90;;;;;;4914760;29;20201;-73
2024/03/17 20:13:15;;;;;;;2.80;1.50;;;12.60;99.90;;;;;;4911564;29;20206;-73
2024/03/17 20:15:42;;;;;;;3.73;1.47;;;12.60;99.90;;;;;;4918278;29;20300;-77
2024/03/17 20:18:09;;;;;;;1.67;1.27;;;12.50;99.90;;;;;;4917359;29;20646;-72
2024/03/17 20:20:37;;;;;;;2.37;1.40;;;12.50;99.90;;;;;;4918066;29;20705;-73
2024/03/17 20:23:04;;;;;;;3.70;1.60;;;12.50;99.90;;;;;;4911631;29;20245;-72
2024/03/17 20:25:32;;;;;;;2.97;1.70;;;12.50;99.90;;;;;;4909744;29;20257;-73
2024/03/17 20:28:01;;;;;;;2.97;1.30;;;12.50;99.90;;;;;;4917469;29;20252;-73
2024/03/17 20:30:28;;;;;;;4.27;1.70;;;12.60;99.90;;;;;;4917949;29;20220;-73
2024/03/17 20:32:55;;;;;;;2.53;1.77;;;12.60;99.90;;;;;;4917528;29;20248;-73
2024/03/17 20:35:24;;;;;;;2.00;1.70;;;12.60;99.90;;;;;;4917702;29;20245;-73
2024/03/17 20:37:53;;;;;;;1.53;1.37;;;12.70;99.90;;;;;;4917365;29;20232;-73
2024/03/17 20:40:20;;;;;;;3.50;1.50;;;12.70;99.90;;;;;;4917388;29;20688;-73
2024/03/17 20:42:47;;;;;;;2.53;1.73;;;12.70;99.90;;;;;;4917636;29;20243;-73
2024/03/17 20:45:16;;;;;;;2.00;1.57;;;12.70;99.90;;;;;;4917636;29;20328;-72
2024/03/17 20:47:43;;;;;;;2.07;1.70;;;12.70;99.90;;;;;;4906169;29;20228;-73
2024/03/17 20:50:17;;;;;;;2.10;1.57;;;12.70;99.90;;;;;;4917507;29;20244;-72
2024/03/17 20:52:44;;;;;;;2.20;1.60;;;12.80;99.90;;;;;;4917562;29;20810;-74
2024/03/17 20:55:15;;;;;;;2.67;1.50;;;12.70;99.90;;;;;;4917255;29;20720;-73
2024/03/17 20:57:42;;;;;;;4.10;1.80;;;12.90;99.90;;;;;;4917468;29;20229;-73
2024/03/17 21:00:19;;;;;;;1.80;1.50;;;12.80;99.90;;;;;;4917069;29;20233;-73
2024/03/17 21:02:47;;;;;;;2.27;1.77;;;12.90;99.90;;;;;;4917236;29;20229;-73
2024/03/17 21:05:14;;;;;;;1.80;1.50;;;12.80;99.90;;;;;;4916940;29;20698;-73
2024/03/17 21:07:42;;;;;;;2.63;2.00;;;12.80;99.90;;;;;;4917415;29;20284;-74
2024/03/17 21:10:11;;;;;;;2.50;1.90;;;12.90;99.90;;;;;;4916935;29;20216;-73
2024/03/17 21:12:40;;;;;;;2.63;1.73;;;12.90;99.90;;;;;;4917038;29;20217;-73
2024/03/17 21:15:09;;;;;;;3.10;2.30;;;12.90;99.90;;;;;;4916621;29;20225;-74
2024/03/17 21:17:36;;;;;;;2.27;1.90;;;12.90;99.90;;;;;;4916774;29;20590;-73
2024/03/17 21:20:05;;;;;;;3.27;2.07;;;12.90;99.90;;;;;;4916667;29;20214;-73
2024/03/17 21:22:33;;;;;;;2.20;1.70;;;12.90;99.90;;;;;;4917125;29;20213;-76
2024/03/17 21:25:01;;;;;;;2.60;2.00;;;12.80;99.90;;;;;;4904728;29;20241;-73
2024/03/17 21:27:30;;;;;;;3.53;1.70;;;12.80;99.90;;;;;;4916472;29;20213;-73
2024/03/17 21:29:58;;;;;;;2.87;1.67;;;12.80;99.90;;;;;;4916850;29;20213;-72
2024/03/17 21:32:25;;;;;;;2.30;1.70;;;12.80;99.90;;;;;;4916556;29;20214;-73
2024/03/17 21:34:54;;;;;;;2.47;1.80;;;12.80;99.90;;;;;;4917163;29;20260;-72
2024/03/17 21:37:21;;;;;;;2.60;1.80;;;12.90;99.90;;;;;;4916272;29;20666;-73
2024/03/17 21:39:48;;;;;;;2.43;1.67;;;12.80;99.90;;;;;;4916638;29;20247;-73
2024/03/17 21:42:15;;;;;;;3.23;1.60;;;12.80;99.90;;;;;;4916290;29;20244;-75
2024/03/17 21:44:42;;;;;;;2.53;1.97;;;12.90;99.90;;;;;;4916693;29;20710;-74
2024/03/17 21:47:11;;;;;;;3.03;1.97;;;13.00;99.90;;;;;;4916493;29;20237;-72
2024/03/17 21:49:38;;;;;;;3.27;1.83;;;13.10;99.90;;;;;;4916687;29;20209;-72
2024/03/17 21:52:05;;;;;;;3.67;1.60;;;13.20;99.90;;;;;;4916527;29;20252;-76
2024/03/17 21:54:32;;;;;;;4.30;2.33;;;13.20;99.90;;;;;;4916671;29;20241;-73
2024/03/17 21:56:59;;;;;;;2.37;1.73;;;13.20;99.90;;;;;;4916038;29;20245;-73
2024/03/17 21:59:26;;;;;;;2.57;2.00;;;13.10;99.90;;;;;;4916330;29;20240;-72
2024/03/17 22:01:53;;;;;;;2.57;1.83;;;13.00;99.90;;;;;;4916235;29;20233;-73
2024/03/17 22:04:21;;;;;;;2.97;2.03;;;12.80;99.90;;;;;;4916492;29;20324;-73
2024/03/17 22:06:48;;;;;;;2.83;1.70;;;12.80;99.90;;;;;;4916015;29;20238;-73
2024/03/17 22:09:15;;;;;;;2.73;2.00;;;12.70;99.90;;;;;;4916435;29;20669;-73
2024/03/17 22:11:42;;;;;;;2.50;1.70;;;12.70;99.90;;;;;;4915952;29;20252;-73
2024/03/17 22:14:09;;;;;;;3.37;2.00;;;12.60;99.90;;;;;;4920126;29;20217;-73
2024/03/17 22:16:38;;;;;;;2.53;1.87;;;12.60;99.90;;;;;;4919845;29;20248;-73
2024/03/17 22:19:06;;;;;;;2.30;1.87;;;12.50;99.90;;;;;;4920163;29;20229;-74
2024/03/17 22:21:34;;;;;;;3.17;2.10;;;12.50;99.90;;;;;;4919743;29;20205;-73
2024/03/17 22:24:02;;;;;;;2.83;2.10;;;12.40;99.90;;;;;;4919950;29;20241;-73
2024/03/17 22:26:29;;;;;;;3.17;2.10;;;12.40;99.90;;;;;;4919608;29;20216;-73
2024/03/17 22:28:56;;;;;;;3.10;2.23;;;12.40;99.90;;;;;;4920254;29;20232;-73
2024/03/17 22:31:24;;;;;;;2.80;1.80;;;12.40;99.90;;;;;;4919726;29;20245;-73
2024/03/17 22:33:52;;;;;;;3.13;1.97;;;12.30;99.90;;;;;;4920114;29;20205;-73
2024/03/17 22:36:19;;;;;;;2.73;1.90;;;12.30;99.90;;;;;;4919935;29;20265;-77
2024/03/17 22:38:48;;;;;;;2.40;1.60;;;12.20;99.90;;;;;;4919733;29;20233;-73
2024/03/17 22:41:17;;;;;;;2.27;1.67;;;12.30;99.90;;;;;;4907992;29;20210;-74
2024/03/17 22:43:44;;;;;;;2.77;2.13;;;12.30;99.90;;;;;;4919696;29;20210;-73
